Date,TemperatureHighF,TemperatureAvgF,TemperatureLowF,DewpointHighF,DewpointAvgF,DewpointLowF,HumidityHigh,HumidityAvg,HumidityLow,PressureMaxIn,PressureMinIn,WindSpeedMaxMPH,WindSpeedAvgMPH,GustSpeedMaxMPH,PrecipitationSumIn
2013-5-1,84,72,60,24,17,12,18,13,8,28.93,28.74,8,2,16,0.00
2013-5-2,92,74,50,40,30,17,50,21,10,29.01,28.90,2,0,5,0.00
2013-5-3,94,71,46,47,38,27,69,35,10,28.91,28.64,3,0,9,0.00
2013-5-4,90,74,57,42,32,21,52,24,9,28.65,28.38,6,1,12,0.00
2013-5-5,66,56,47,49,45,37,86,67,49,28.63,28.39,3,0,7,0.00
2013-5-6,70,58,48,50,47,44,88,68,40,28.78,28.63,2,0,6,0.00
2013-5-7,72,60,50,52,48,45,84,65,45,28.84,28.77,3,0,7,0.00
2013-5-8,74,61,50,54,50,45,86,70,48,28.90,28.83,2,0,5,0.00
2013-5-9,82,65,49,57,52,46,92,66,41,28.93,28.83,3,0,6,0.00
2013-5-10,90,69,50,60,50,-100,90,59,34,28.95,28.86,2,0,11,0.00
2013-5-11,94,72,53,60,52,-100,84,54,25,28.93,28.86,3,0,6,0.00
2013-5-12,92,71,50,60,50,43,88,53,19,28.94,28.82,3,0,7,0.00
2013-5-13,93,71,49,57,49,42,79,50,23,28.87,28.76,4,1,10,0.00
2013-5-14,93,73,54,56,46,31,80,45,19,28.77,28.69,5,1,14,0.00
2013-5-15,84,66,47,51,43,37,72,47,26,28.80,28.74,4,1,13,0.00
2013-5-16,75,61,55,48,28,-100,60,49,32,28.80,28.71,4,1,15,0.00
2013-5-17,76,60,43,47,38,-100,85,54,26,28.85,28.75,3,1,11,0.00
2013-5-18,85,63,42,48,42,36,82,52,20,28.92,28.84,5,1,18,0.00
2013-5-19,88,69,48,43,35,19,72,35,11,28.95,28.81,5,1,9,0.00
2013-5-20,92,75,57,45,38,30,49,28,12,28.86,28.71,4,1,10,0.00
2013-5-21,78,66,49,42,37,28,54,35,23,28.79,28.69,5,2,18,0.00
2013-5-22,73,56,42,37,30,25,60,40,17,28.82,28.69,4,1,14,0.00
2013-5-23,75,58,42,42,38,33,76,50,24,28.81,28.69,4,1,9,0.00
2013-5-24,78,60,39,44,39,32,86,51,23,28.80,28.71,3,1,7,0.00
2013-5-25,78,61,43,47,42,37,83,52,29,28.80,28.74,4,1,15,0.00
2013-5-26,80,64,53,47,43,39,77,50,25,28.88,28.80,4,1,13,0.00
2013-5-27,66,57,48,53,48,39,90,72,56,28.88,28.79,4,1,10,0.02
2013-5-28,79,64,53,54,52,48,92,66,36,28.80,28.71,3,0,7,0.02
2013-5-29,82,68,56,51,47,40,75,50,24,28.75,28.69,4,1,14,0.00
2013-5-30,85,66,45,46,42,33,83,48,16,28.80,28.73,3,0,11,0.00
2013-5-31,96,73,50,49,41,24,78,40,8,28.84,28.73,4,0,8,0.00